Time;durP1;ratioP1;P1;durP2;ratioP2;P2;SDS_P1;SDS_P2;PMS_P1;PMS_P2;Temp;Humidity;BMP_temperature;BMP_pressure;BME280_temperature;BME280_humidity;BME280_pressure;Samples;Min_cycle;Max_cycle;Signal;HPM_P1;HPM_P2
2023/09/01 00:01:06;;;;;;;1999.90;999.90;;;;;;;;;;5084595;28;20054;-79
2023/09/01 00:03:33;;;;;;;1999.90;999.90;;;;;;;;;;5096772;28;20051;-79
2023/09/01 00:06:02;;;;;;;1999.90;999.90;;;;;;;;;;5087983;28;20056;-78
2023/09/01 00:08:28;;;;;;;1999.90;999.90;;;;;;;;;;5089334;28;20828;-79
2023/09/01 00:10:55;;;;;;;1999.90;999.90;;;;;;;;;;5096865;28;20518;-78
2023/09/01 00:13:23;;;;;;;1999.90;999.90;;;;;;;;;;5095890;28;20071;-81
2023/09/01 00:15:49;;;;;;;1999.90;999.90;;;;;;;;;;5089341;28;20040;-79
2023/09/01 00:18:16;;;;;;;1999.90;999.90;;;;;;;;;;5091070;28;20050;-79
2023/09/01 00:20:48;;;;;;;1999.90;999.90;;;;;;;;;;5095199;28;20044;-80
2023/09/01 00:23:14;;;;;;;1999.90;999.90;;;;;;;;;;5085890;28;20077;-81
2023/09/01 00:25:41;;;;;;;1999.90;999.90;;;;;;;;;;5091914;28;20044;-79
2023/09/01 00:28:07;;;;;;;1999.90;999.90;;;;;;;;;;5086823;28;20122;-79
2023/09/01 00:30:51;;;;;;;1999.90;999.90;;;;;;;;;;5094146;28;20054;-78
2023/09/01 00:33:17;;;;;;;1999.90;999.90;;;;;;;;;;5091669;28;20052;-79
2023/09/01 00:35:43;;;;;;;1999.90;999.90;;;;;;;;;;5093627;28;20046;-79
2023/09/01 00:38:10;;;;;;;1999.90;999.90;;;;;;;;;;5091812;28;20070;-79
2023/09/01 00:40:37;;;;;;;1999.90;999.90;;;;;;;;;;5089035;28;20048;-79
2023/09/01 00:43:04;;;;;;;1999.90;999.90;;;;;;;;;;5085831;28;20446;-79
2023/09/01 00:45:30;;;;;;;1999.90;999.90;;;;;;;;;;5091894;28;20319;-79
2023/09/01 00:47:58;;;;;;;1999.90;999.90;;;;;;;;;;5097858;28;20048;-80
2023/09/01 00:50:24;;;;;;;1999.90;999.90;;;;;;;;;;5095282;28;20048;-78
2023/09/01 00:52:51;;;;;;;1999.90;999.90;;;;;;;;;;5093197;28;20484;-79
2023/09/01 00:55:18;;;;;;;1999.90;999.90;;;;;;;;;;5085265;28;20051;-79
2023/09/01 00:57:45;;;;;;;1999.90;999.90;;;;;;;;;;5092251;28;20109;-79
2023/09/01 01:00:12;;;;;;;1999.90;999.90;;;;;;;;;;5078740;28;20135;-78
2023/09/01 01:02:39;;;;;;;1999.90;999.90;;;;;;;;;;5077060;22;20489;-87
2023/09/01 01:05:14;;;;;;;1999.90;999.90;;;;;;;;;;5019544;28;20045;-87
2023/09/01 01:07:46;;;;;;;1999.90;999.90;;;;;;;;;;5026196;28;20075;-87
2023/09/01 01:10:19;;;;;;;1999.90;999.90;;;;;;;;;;5027313;28;20041;-88
2023/09/01 01:12:50;;;;;;;1999.90;999.90;;;;;;;;;;5026776;28;20041;-88
2023/09/01 01:15:19;;;;;;;1999.90;999.90;;;;;;;;;;5022368;28;20119;-87
2023/09/01 01:17:46;;;;;;;1999.90;999.90;;;;;;;;;;5022983;28;20120;-89
2023/09/01 01:20:38;;;;;;;1999.90;999.90;;;;;;;;;;5027404;28;20041;-86
2023/09/01 01:23:10;;;;;;;1999.90;999.90;;;;;;;;;;5023430;28;20065;-88
2023/09/01 01:25:37;;;;;;;1999.90;999.90;;;;;;;;;;5026200;28;20099;-87
2023/09/01 01:28:07;;;;;;;1999.90;999.90;;;;;;;;;;5023560;28;20497;-87
2023/09/01 01:30:34;;;;;;;1999.90;999.90;;;;;;;;;;5027293;28;20049;-88
2023/09/01 01:33:01;;;;;;;1999.90;999.90;;;;;;;;;;5025455;28;20508;-87
2023/09/01 01:35:33;;;;;;;1999.90;999.90;;;;;;;;;;5028968;28;20042;-88
2023/09/01 01:38:06;;;;;;;1999.90;999.90;;;;;;;;;;5024124;28;20049;-90
2023/09/01 01:40:34;;;;;;;1999.90;999.90;;;;;;;;;;5029127;28;20056;-88
2023/09/01 01:43:03;;;;;;;1999.90;999.90;;;;;;;;;;5027105;28;20052;-88
2023/09/01 01:45:30;;;;;;;1999.90;999.90;;;;;;;;;;5023728;28;20511;-89
2023/09/01 01:47:56;;;;;;;1999.90;999.90;;;;;;;;;;5028568;28;20050;-88
2023/09/01 01:50:23;;;;;;;1999.90;999.90;;;;;;;;;;5025707;28;20060;-89
2023/09/01 01:52:50;;;;;;;1999.90;999.90;;;;;;;;;;5030404;28;20059;-88
2023/09/01 01:55:17;;;;;;;1999.90;999.90;;;;;;;;;;5021732;28;20052;-87
2023/09/01 01:57:45;;;;;;;1999.90;999.90;;;;;;;;;;5025209;28;20592;-87
2023/09/01 02:00:14;;;;;;;1999.90;999.90;;;;;;;;;;5024907;28;20577;-87
2023/09/01 02:02:42;;;;;;;1999.90;999.90;;;;;;;;;;5022669;28;20116;-86
2023/09/01 02:05:09;;;;;;;1999.90;999.90;;;;;;;;;;5024615;28;20057;-87
2023/09/01 02:07:36;;;;;;;1999.90;999.90;;;;;;;;;;5027727;28;20050;-87
2023/09/01 02:10:05;;;;;;;1999.90;999.90;;;;;;;;;;5021620;28;20061;-87
2023/09/01 02:12:32;;;;;;;1999.90;999.90;;;;;;;;;;5027030;28;20437;-88
2023/09/01 02:15:00;;;;;;;1999.90;999.90;;;;;;;;;;5024750;28;20054;-87
2023/09/01 02:17:27;;;;;;;1999.90;999.90;;;;;;;;;;5022289;28;20192;-88
2023/09/01 02:19:53;;;;;;;1999.90;999.90;;;;;;;;;;5025903;28;20053;-87
2023/09/01 02:22:32;;;;;;;1999.90;999.90;;;;;;;;;;5024917;28;20055;-87
2023/09/01 02:24:59;;;;;;;1999.90;999.90;;;;;;;;;;5020059;28;20486;-87
2023/09/01 02:27:25;;;;;;;1999.90;999.90;;;;;;;;;;5019339;28;20045;-88
2023/09/01 02:29:52;;;;;;;1999.90;999.90;;;;;;;;;;5025772;28;20068;-86
2023/09/01 02:32:20;;;;;;;1999.90;999.90;;;;;;;;;;5022853;28;20050;-84
2023/09/01 02:34:46;;;;;;;1999.90;999.90;;;;;;;;;;5022823;28;20054;-89
2023/09/01 02:37:13;;;;;;;1999.90;999.90;;;;;;;;;;5023213;28;20481;-85
2023/09/01 02:39:39;;;;;;;1999.90;999.90;;;;;;;;;;5026584;28;20050;-87
2023/09/01 02:42:06;;;;;;;1999.90;999.90;;;;;;;;;;5019093;28;20056;-86
2023/09/01 02:44:32;;;;;;;1999.90;999.90;;;;;;;;;;5024070;28;20050;-86
2023/09/01 02:46:59;;;;;;;1999.90;999.90;;;;;;;;;;5030160;28;20045;-85
2023/09/01 02:49:27;;;;;;;1999.90;999.90;;;;;;;;;;5026176;28;20045;-85
2023/09/01 02:51:59;;;;;;;1999.90;999.90;;;;;;;;;;5022295;28;20068;-86
2023/09/01 02:54:26;;;;;;;1999.90;999.90;;;;;;;;;;5019431;28;20053;-86
2023/09/01 02:56:53;;;;;;;1999.90;999.90;;;;;;;;;;5020469;28;20056;-87
2023/09/01 02:59:19;;;;;;;1999.90;999.90;;;;;;;;;;5023285;28;20395;-85
2023/09/01 03:01:46;;;;;;;1999.90;999.90;;;;;;;;;;5022982;28;20409;-88
2023/09/01 03:04:12;;;;;;;1999.90;999.90;;;;;;;;;;5025713;28;20255;-93
2023/09/01 03:06:40;;;;;;;1999.90;999.90;;;;;;;;;;5019117;28;20128;-87
2023/09/01 03:09:09;;;;;;;1999.90;999.90;;;;;;;;;;5035321;28;20054;-87
2023/09/01 03:11:52;;;;;;;1999.90;999.90;;;;;;;;;;5029061;28;20046;-88
2023/09/01 03:14:18;;;;;;;1999.90;999.90;;;;;;;;;;5032154;28;20056;-88
2023/09/01 03:16:45;;;;;;;1999.90;999.90;;;;;;;;;;5021551;28;20491;-85
2023/09/01 03:19:11;;;;;;;1999.90;999.90;;;;;;;;;;5020701;28;20050;-86
2023/09/01 03:22:13;;;;;;;1999.90;999.90;;;;;;;;;;5020885;28;20049;-86
2023/09/01 03:24:39;;;;;;;1999.90;999.90;;;;;;;;;;5021532;28;20506;-86
2023/09/01 03:27:06;;;;;;;1999.90;999.90;;;;;;;;;;5021717;28;20050;-85
2023/09/01 03:29:32;;;;;;;1999.90;999.90;;;;;;;;;;5017944;28;20053;-87
2023/09/01 03:31:59;;;;;;;1999.90;999.90;;;;;;;;;;5020394;28;20050;-86
2023/09/01 03:34:25;;;;;;;1999.90;999.90;;;;;;;;;;5019522;28;20041;-88
2023/09/01 03:36:53;;;;;;;1999.90;999.90;;;;;;;;;;5023168;28;20046;-86
2023/09/01 03:39:21;;;;;;;1999.90;999.90;;;;;;;;;;5025285;28;20042;-86
2023/09/01 03:41:47;;;;;;;1999.90;999.90;;;;;;;;;;5016410;28;20054;-87
2023/09/01 03:44:14;;;;;;;1999.90;999.90;;;;;;;;;;5019613;28;20055;-88
2023/09/01 03:46:40;;;;;;;1999.90;999.90;;;;;;;;;;5017699;28;20049;-88
2023/09/01 03:49:07;;;;;;;1999.90;999.90;;;;;;;;;;5022795;28;20049;-88
2023/09/01 03:51:33;;;;;;;1999.90;999.90;;;;;;;;;;5032343;28;20076;-87
2023/09/01 03:54:00;;;;;;;1999.90;999.90;;;;;;;;;;5023960;28;20056;-89
2023/09/01 03:56:28;;;;;;;1999.90;999.90;;;;;;;;;;5014833;28;20054;-88
2023/09/01 03:58:55;;;;;;;1999.90;999.90;;;;;;;;;;5024061;28;20059;-89
2023/09/01 04:01:22;;;;;;;1999.90;999.90;;;;;;;;;;5026167;28;20045;-88
2023/09/01 04:03:49;;;;;;;1999.90;999.90;;;;;;;;;;5030883;28;20053;-86
2023/09/01 04:06:23;;;;;;;1999.90;999.90;;;;;;;;;;5035720;28;20045;-89
2023/09/01 04:08:49;;;;;;;1999.90;999.90;;;;;;;;;;5015900;28;20049;-89
2023/09/01 04:11:16;;;;;;;1999.90;999.90;;;;;;;;;;5020247;28;20049;-87
2023/09/01 04:13:48;;;;;;;1999.90;999.90;;;;;;;;;;5021221;28;20050;-88
2023/09/01 04:16:15;;;;;;;1999.90;999.90;;;;;;;;;;5034417;28;20401;-86
2023/09/01 04:18:41;;;;;;;1999.90;999.90;;;;;;;;;;5028622;28;20065;-89
2023/09/01 04:22:03;;;;;;;1999.90;999.90;;;;;;;;;;5016586;28;20474;-89
2023/09/01 04:24:29;;;;;;;1999.90;999.90;;;;;;;;;;5026500;28;20054;-88
2023/09/01 04:26:56;;;;;;;1999.90;999.90;;;;;;;;;;5016368;28;20054;-90
2023/09/01 04:29:31;;;;;;;1999.90;999.90;;;;;;;;;;5015489;28;20056;-90
2023/09/01 04:31:57;;;;;;;1999.90;999.90;;;;;;;;;;5014768;28;20064;-89
2023/09/01 04:34:23;;;;;;;1999.90;999.90;;;;;;;;;;5016144;28;20053;-89
2023/09/01 04:40:16;;;;;;;1999.90;999.90;;;;;;;;;;5015272;28;20034;-89
2023/09/01 04:42:42;;;;;;;1999.90;999.90;;;;;;;;;;5015976;28;20050;-89
2023/09/01 04:45:11;;;;;;;1999.90;999.90;;;;;;;;;;5015073;28;20056;-89
2023/09/01 04:47:52;;;;;;;1999.90;999.90;;;;;;;;;;5015262;28;20140;-88
2023/09/01 04:53:55;;;;;;;1999.90;999.90;;;;;;;;;;5025167;28;20087;-89
2023/09/01 04:56:23;;;;;;;1999.90;999.90;;;;;;;;;;5034641;28;20137;-90
2023/09/01 04:58:50;;;;;;;1999.90;999.90;;;;;;;;;;5026759;28;20482;-89
2023/09/01 05:01:17;;;;;;;1999.90;999.90;;;;;;;;;;5034715;28;20055;-90
2023/09/01 05:03:44;;;;;;;1999.90;999.90;;;;;;;;;;5021114;28;20069;-90
2023/09/01 05:06:28;;;;;;;1999.90;999.90;;;;;;;;;;5014675;28;20473;-87
2023/09/01 05:08:54;;;;;;;1999.90;999.90;;;;;;;;;;5017059;28;20049;-89
2023/09/01 05:11:21;;;;;;;1999.90;999.90;;;;;;;;;;5018760;28;20057;-83
2023/09/01 05:13:47;;;;;;;1999.90;999.90;;;;;;;;;;5022691;28;20052;-83
2023/09/01 05:16:13;;;;;;;1999.90;999.90;;;;;;;;;;5018666;28;20061;-85
2023/09/01 05:18:42;;;;;;;1999.90;999.90;;;;;;;;;;5021305;28;20060;-84
2023/09/01 05:21:11;;;;;;;1999.90;999.90;;;;;;;;;;5024935;28;20038;-82
2023/09/01 05:23:38;;;;;;;1999.90;999.90;;;;;;;;;;5025878;28;20413;-84
2023/09/01 05:26:05;;;;;;;1999.90;999.90;;;;;;;;;;5024817;28;20057;-84
2023/09/01 05:28:31;;;;;;;1999.90;999.90;;;;;;;;;;5016373;28;20046;-84
2023/09/01 05:30:58;;;;;;;1999.90;999.90;;;;;;;;;;5018444;28;20057;-83
2023/09/01 05:33:24;;;;;;;1999.90;999.90;;;;;;;;;;5022471;28;20049;-84
2023/09/01 05:35:52;;;;;;;1999.90;999.90;;;;;;;;;;5016072;28;20046;-83
2023/09/01 05:38:19;;;;;;;1999.90;999.90;;;;;;;;;;5020998;28;20049;-84
2023/09/01 05:40:45;;;;;;;1999.90;999.90;;;;;;;;;;5023678;28;20051;-84
2023/09/01 05:43:17;;;;;;;1999.90;999.90;;;;;;;;;;5024837;28;20050;-83
2023/09/01 05:45:43;;;;;;;1999.90;999.90;;;;;;;;;;5022733;28;20482;-84
2023/09/01 05:48:10;;;;;;;1999.90;999.90;;;;;;;;;;5015217;28;20054;-84
2023/09/01 05:50:36;;;;;;;1999.90;999.90;;;;;;;;;;5015945;28;20176;-83
2023/09/01 05:53:04;;;;;;;1999.90;999.90;;;;;;;;;;5024186;28;20051;-83
2023/09/01 05:55:31;;;;;;;1999.90;999.90;;;;;;;;;;5015439;28;20141;-83
2023/09/01 05:57:57;;;;;;;1999.90;999.90;;;;;;;;;;5021695;28;20060;-83
2023/09/01 06:00:24;;;;;;;1999.90;999.90;;;;;;;;;;5022862;28;20042;-83
2023/09/01 06:02:51;;;;;;;1999.90;999.90;;;;;;;;;;5024069;28;20053;-83
2023/09/01 06:05:18;;;;;;;1999.90;999.90;;;;;;;;;;5022849;28;20129;-83
2023/09/01 06:07:44;;;;;;;1999.90;999.90;;;;;;;;;;5028163;28;20052;-83
2023/09/01 06:10:12;;;;;;;1999.90;999.90;;;;;;;;;;5021044;28;20050;-83
2023/09/01 06:12:39;;;;;;;1999.90;999.90;;;;;;;;;;5022923;28;20053;-84
2023/09/01 06:15:07;;;;;;;1999.90;999.90;;;;;;;;;;5027334;28;20050;-83
2023/09/01 06:17:33;;;;;;;1999.90;999.90;;;;;;;;;;5024989;28;20042;-82
2023/09/01 06:20:00;;;;;;;1999.90;999.90;;;;;;;;;;5025822;28;20068;-84
2023/09/01 06:22:27;;;;;;;1999.90;999.90;;;;;;;;;;5025877;28;20053;-83
2023/09/01 06:24:53;;;;;;;1999.90;999.90;;;;;;;;;;5019670;28;20049;-82
2023/09/01 06:27:21;;;;;;;1999.90;999.90;;;;;;;;;;5030758;28;20048;-84
2023/09/01 06:29:48;;;;;;;1999.90;999.90;;;;;;;;;;5021854;28;20050;-84
2023/09/01 06:32:14;;;;;;;1999.90;999.90;;;;;;;;;;5020364;28;20483;-84
2023/09/01 06:34:41;;;;;;;1999.90;999.90;;;;;;;;;;5022568;28;20051;-83
2023/09/01 06:37:07;;;;;;;1999.90;999.90;;;;;;;;;;5026653;28;20050;-84
2023/09/01 06:39:34;;;;;;;1999.90;999.90;;;;;;;;;;5029188;28;20482;-83
2023/09/01 06:42:00;;;;;;;1999.90;999.90;;;;;;;;;;5024954;28;20056;-83
2023/09/01 06:44:28;;;;;;;1999.90;999.90;;;;;;;;;;5021213;28;20052;-84
2023/09/01 06:46:55;;;;;;;1999.90;999.90;;;;;;;;;;5017900;28;20081;-84
2023/09/01 06:49:21;;;;;;;1999.90;999.90;;;;;;;;;;5023895;28;20052;-82
2023/09/01 06:51:48;;;;;;;1999.90;999.90;;;;;;;;;;5023512;28;20050;-81
2023/09/01 06:54:14;;;;;;;1999.90;999.90;;;;;;;;;;5021102;28;20050;-83
2023/09/01 06:56:41;;;;;;;1999.90;999.90;;;;;;;;;;5026456;28;20053;-82
2023/09/01 06:59:07;;;;;;;1999.90;999.90;;;;;;;;;;5027937;28;20052;-83
2023/09/01 07:01:35;;;;;;;1999.90;999.90;;;;;;;;;;5025977;28;20045;-80
2023/09/01 07:04:03;;;;;;;1999.90;999.90;;;;;;;;;;5023535;28;20414;-82
2023/09/01 07:06:29;;;;;;;1999.90;999.90;;;;;;;;;;5024576;28;20073;-81
2023/09/01 07:08:56;;;;;;;1999.90;999.90;;;;;;;;;;5024186;28;20045;-79
2023/09/01 07:11:22;;;;;;;1999.90;999.90;;;;;;;;;;5022164;28;20065;-83
2023/09/01 07:13:49;;;;;;;1999.90;999.90;;;;;;;;;;5022345;28;20057;-80
2023/09/01 07:16:17;;;;;;;1999.90;999.90;;;;;;;;;;5025519;28;20452;-80
2023/09/01 07:18:46;;;;;;;1999.90;999.90;;;;;;;;;;5028101;28;20658;-81
2023/09/01 07:21:12;;;;;;;1999.90;999.90;;;;;;;;;;5029646;28;20034;-82
2023/09/01 07:23:39;;;;;;;1999.90;999.90;;;;;;;;;;5019588;28;20049;-80
2023/09/01 07:26:06;;;;;;;1999.90;999.90;;;;;;;;;;5021420;28;20136;-81
2023/09/01 07:28:32;;;;;;;1999.90;999.90;;;;;;;;;;5025529;28;20670;-80
2023/09/01 07:30:59;;;;;;;1999.90;999.90;;;;;;;;;;5023636;28;20053;-80
2023/09/01 07:33:28;;;;;;;1999.90;999.90;;;;;;;;;;5021433;28;20052;-81
2023/09/01 07:35:56;;;;;;;1999.90;999.90;;;;;;;;;;5023594;28;20049;-80
2023/09/01 07:38:23;;;;;;;1999.90;999.90;;;;;;;;;;5027469;28;20383;-83
2023/09/01 07:40:50;;;;;;;1999.90;999.90;;;;;;;;;;5021992;28;20077;-82
2023/09/01 07:43:17;;;;;;;1999.90;999.90;;;;;;;;;;5024359;28;20534;-79
2023/09/01 07:45:44;;;;;;;1999.90;999.90;;;;;;;;;;5023494;28;20044;-80
2023/09/01 07:48:10;;;;;;;1999.90;999.90;;;;;;;;;;5020415;28;20519;-80
2023/09/01 07:50:37;;;;;;;1999.90;999.90;;;;;;;;;;5022733;28;20049;-79
2023/09/01 07:53:05;;;;;;;1999.90;999.90;;;;;;;;;;5021688;28;20440;-79
2023/09/01 07:55:32;;;;;;;1999.90;999.90;;;;;;;;;;5021964;28;20042;-80
2023/09/01 07:57:58;;;;;;;1999.90;999.90;;;;;;;;;;5022449;28;20303;-79
2023/09/01 08:00:25;;;;;;;1999.90;999.90;;;;;;;;;;5020250;28;20133;-80
2023/09/01 08:02:52;;;;;;;1999.90;999.90;;;;;;;;;;5023584;28;20525;-79
2023/09/01 08:05:18;;;;;;;1999.90;999.90;;;;;;;;;;5024546;28;20048;-80
2023/09/01 08:07:46;;;;;;;1999.90;999.90;;;;;;;;;;5018786;28;20046;-80
2023/09/01 08:10:14;;;;;;;1999.90;999.90;;;;;;;;;;5025337;28;20056;-80
2023/09/01 08:12:40;;;;;;;1999.90;999.90;;;;;;;;;;5019711;28;20406;-79
2023/09/01 08:15:08;;;;;;;1999.90;999.90;;;;;;;;;;5025388;28;20064;-81
2023/09/01 08:17:35;;;;;;;1999.90;999.90;;;;;;;;;;5016056;28;20457;-81
2023/09/01 08:20:03;;;;;;;1999.90;999.90;;;;;;;;;;5024646;28;20425;-79
2023/09/01 08:22:33;;;;;;;1999.90;999.90;;;;;;;;;;5023004;28;20052;-79
2023/09/01 08:24:59;;;;;;;1999.90;999.90;;;;;;;;;;5027486;28;20501;-79
2023/09/01 08:27:27;;;;;;;1999.90;999.90;;;;;;;;;;5020252;28;20047;-81
2023/09/01 08:29:54;;;;;;;1999.90;999.90;;;;;;;;;;5020111;28;20107;-81
2023/09/01 08:32:21;;;;;;;1999.90;999.90;;;;;;;;;;5018197;28;20051;-81
2023/09/01 08:34:47;;;;;;;1999.90;999.90;;;;;;;;;;5023876;28;20052;-80
2023/09/01 08:37:15;;;;;;;1999.90;999.90;;;;;;;;;;5019651;28;20050;-78
2023/09/01 08:39:42;;;;;;;1999.90;999.90;;;;;;;;;;5023010;28;20077;-80
2023/09/01 08:42:09;;;;;;;1999.90;999.90;;;;;;;;;;5020509;28;20056;-79
2023/09/01 08:44:40;;;;;;;1999.90;999.90;;;;;;;;;;5019833;28;20046;-81
2023/09/01 08:47:08;;;;;;;1999.90;999.90;;;;;;;;;;5024000;28;20390;-80
2023/09/01 08:49:35;;;;;;;1999.90;999.90;;;;;;;;;;5021188;28;20064;-80
2023/09/01 08:52:03;;;;;;;1999.90;999.90;;;;;;;;;;5016238;28;20050;-80
2023/09/01 08:54:31;;;;;;;1999.90;999.90;;;;;;;;;;5021930;28;20057;-80
2023/09/01 08:56:57;;;;;;;1999.90;999.90;;;;;;;;;;5023688;28;20045;-79
2023/09/01 08:59:24;;;;;;;1999.90;999.90;;;;;;;;;;5017970;28;20060;-81
2023/09/01 09:01:52;;;;;;;1999.90;999.90;;;;;;;;;;5019782;28;20042;-80
2023/09/01 09:04:19;;;;;;;1999.90;999.90;;;;;;;;;;5019146;28;20046;-79
2023/09/01 09:06:46;;;;;;;1999.90;999.90;;;;;;;;;;5019520;28;20049;-81
2023/09/01 09:09:14;;;;;;;1999.90;999.90;;;;;;;;;;5019265;28;20052;-80
2023/09/01 09:11:55;;;;;;;1999.90;999.90;;;;;;;;;;5021016;28;20406;-81
2023/09/01 09:14:21;;;;;;;1999.90;999.90;;;;;;;;;;5019698;28;20100;-81
2023/09/01 09:16:53;;;;;;;1999.90;999.90;;;;;;;;;;5016197;28;20046;-79
2023/09/01 09:19:19;;;;;;;1999.90;999.90;;;;;;;;;;5019404;28;20046;-81
2023/09/01 09:22:11;;;;;;;1999.90;999.90;;;;;;;;;;5022447;28;20458;-82
2023/09/01 09:24:38;;;;;;;1999.90;999.90;;;;;;;;;;4996757;28;20049;-80
2023/09/01 09:27:06;;;;;;;1999.90;999.90;;;;;;;;;;5016510;28;20057;-81
2023/09/01 09:29:39;;;;;;;1999.90;999.90;;;;;;;;;;5019317;28;20046;-80
2023/09/01 09:32:17;;;;;;;1999.90;999.90;;;;;;;;;;5022721;28;20052;-81
2023/09/01 09:34:44;;;;;;;1999.90;999.90;;;;;;;;;;5023226;28;20052;-81
2023/09/01 09:37:16;;;;;;;1999.90;999.90;;;;;;;;;;5027280;28;20045;-81
2023/09/01 09:39:43;;;;;;;1999.90;999.90;;;;;;;;;;5026435;28;20108;-80
2023/09/01 09:42:09;;;;;;;1999.90;999.90;;;;;;;;;;5023841;28;20081;-79
2023/09/01 09:44:36;;;;;;;1999.90;999.90;;;;;;;;;;5026656;28;20402;-81
2023/09/01 09:47:09;;;;;;;1999.90;999.90;;;;;;;;;;5024617;28;20140;-82
2023/09/01 09:49:38;;;;;;;1999.90;999.90;;;;;;;;;;5023078;28;20042;-80
2023/09/01 09:52:06;;;;;;;1999.90;999.90;;;;;;;;;;5022941;28;20058;-81
2023/09/01 09:54:37;;;;;;;1999.90;999.90;;;;;;;;;;5023666;28;20053;-80
2023/09/01 09:57:07;;;;;;;1999.90;999.90;;;;;;;;;;5024731;28;20482;-80
2023/09/01 09:59:38;;;;;;;1999.90;999.90;;;;;;;;;;5023941;28;20050;-82
2023/09/01 10:02:09;;;;;;;1999.90;999.90;;;;;;;;;;5026993;28;20359;-79
2023/09/01 10:04:35;;;;;;;1999.90;999.90;;;;;;;;;;5022813;28;20042;-80
2023/09/01 10:07:04;;;;;;;1999.90;999.90;;;;;;;;;;5028564;28;20486;-80
2023/09/01 10:09:30;;;;;;;1999.90;999.90;;;;;;;;;;5021149;28;20421;-81
2023/09/01 10:11:58;;;;;;;1999.90;999.90;;;;;;;;;;5026312;28;20057;-80
2023/09/01 10:14:25;;;;;;;1999.90;999.90;;;;;;;;;;5020319;28;20044;-79
2023/09/01 10:16:52;;;;;;;1999.90;999.90;;;;;;;;;;5021582;28;20050;-80
2023/09/01 10:19:20;;;;;;;1999.90;999.90;;;;;;;;;;5024735;28;20041;-82
2023/09/01 10:21:46;;;;;;;1999.90;999.90;;;;;;;;;;5023926;28;20054;-83
2023/09/01 10:24:16;;;;;;;1999.90;999.90;;;;;;;;;;5024919;28;20042;-83
2023/09/01 10:26:43;;;;;;;1999.90;999.90;;;;;;;;;;5022797;28;20084;-79
2023/09/01 10:29:10;;;;;;;1999.90;999.90;;;;;;;;;;5024398;28;20046;-81
2023/09/01 10:31:37;;;;;;;1999.90;999.90;;;;;;;;;;5026610;28;20053;-79
2023/09/01 10:34:08;;;;;;;1999.90;999.90;;;;;;;;;;5021649;28;20048;-80
2023/09/01 10:36:35;;;;;;;1999.90;999.90;;;;;;;;;;5020504;28;20100;-80
2023/09/01 10:39:22;;;;;;;1999.90;999.90;;;;;;;;;;5022193;28;20052;-78
2023/09/01 10:41:53;;;;;;;1999.90;999.90;;;;;;;;;;5026792;28;20054;-80
2023/09/01 10:44:21;;;;;;;1999.90;999.90;;;;;;;;;;5021926;28;20465;-80
2023/09/01 10:46:48;;;;;;;1999.90;999.90;;;;;;;;;;5020062;28;20538;-83
2023/09/01 10:49:14;;;;;;;1999.90;999.90;;;;;;;;;;5025361;28;20057;-83
2023/09/01 10:51:41;;;;;;;1999.90;999.90;;;;;;;;;;5023747;28;20051;-80
2023/09/01 10:54:42;;;;;;;1999.90;999.90;;;;;;;;;;5024160;28;20487;-82
2023/09/01 10:57:16;;;;;;;1999.90;999.90;;;;;;;;;;5024190;28;20513;-81
2023/09/01 10:59:42;;;;;;;1999.90;999.90;;;;;;;;;;5021880;28;20045;-81
2023/09/01 11:02:19;;;;;;;1999.90;999.90;;;;;;;;;;5020897;28;20053;-81
2023/09/01 11:04:46;;;;;;;1999.90;999.90;;;;;;;;;;5017097;28;20497;-83
2023/09/01 11:07:13;;;;;;;1999.90;999.90;;;;;;;;;;5025462;28;20049;-82
2023/09/01 11:09:55;;;;;;;1999.90;999.90;;;;;;;;;;5023115;28;20046;-81
2023/09/01 11:12:32;;;;;;;1999.90;999.90;;;;;;;;;;5025270;28;20578;-81
2023/09/01 11:15:01;;;;;;;1999.90;999.90;;;;;;;;;;5020707;28;20046;-81
2023/09/01 11:17:39;;;;;;;1999.90;999.90;;;;;;;;;;5025238;28;20445;-81
2023/09/01 11:20:09;;;;;;;1999.90;999.90;;;;;;;;;;5025023;28;20051;-80
2023/09/01 11:22:37;;;;;;;1999.90;999.90;;;;;;;;;;5017781;28;20042;-80
2023/09/01 11:25:04;;;;;;;1999.90;999.90;;;;;;;;;;5028590;28;20412;-83
2023/09/01 11:27:34;;;;;;;1999.90;999.90;;;;;;;;;;5019741;28;20055;-80
2023/09/01 11:30:04;;;;;;;1999.90;999.90;;;;;;;;;;5021720;28;20049;-85
2023/09/01 11:32:32;;;;;;;1999.90;999.90;;;;;;;;;;5019157;28;20053;-82
2023/09/01 11:34:59;;;;;;;1999.90;999.90;;;;;;;;;;5021788;28;20557;-83
2023/09/01 11:37:39;;;;;;;1999.90;999.90;;;;;;;;;;5022456;28;20048;-83
2023/09/01 11:40:09;;;;;;;1999.90;999.90;;;;;;;;;;5024039;28;20056;-82
2023/09/01 11:42:37;;;;;;;1999.90;999.90;;;;;;;;;;5022278;28;20049;-82
2023/09/01 11:45:06;;;;;;;1999.90;999.90;;;;;;;;;;5019387;28;20056;-81
2023/09/01 11:47:33;;;;;;;1999.90;999.90;;;;;;;;;;5022841;28;20067;-82
2023/09/01 11:49:59;;;;;;;1999.90;999.90;;;;;;;;;;5019096;28;20076;-82
2023/09/01 11:52:31;;;;;;;1999.90;999.90;;;;;;;;;;5021032;28;20141;-82
2023/09/01 11:54:58;;;;;;;1999.90;999.90;;;;;;;;;;5016041;28;20406;-81
2023/09/01 11:57:24;;;;;;;1999.90;999.90;;;;;;;;;;5023426;28;20046;-84
2023/09/01 11:59:52;;;;;;;1999.90;999.90;;;;;;;;;;5021151;28;20060;-82
2023/09/01 12:02:20;;;;;;;1999.90;999.90;;;;;;;;;;5017994;28;20053;-82
2023/09/01 12:04:48;;;;;;;1999.90;999.90;;;;;;;;;;5021212;28;20050;-85
2023/09/01 12:07:24;;;;;;;1999.90;999.90;;;;;;;;;;5021755;28;20049;-85
2023/09/01 12:09:51;;;;;;;1999.90;999.90;;;;;;;;;;5020831;28;20046;-82
2023/09/01 12:12:18;;;;;;;1999.90;999.90;;;;;;;;;;5017825;28;20050;-82
2023/09/01 12:14:44;;;;;;;1999.90;999.90;;;;;;;;;;5019380;28;20042;-82
2023/09/01 12:17:18;;;;;;;1999.90;999.90;;;;;;;;;;5024055;28;20410;-81
2023/09/01 12:19:50;;;;;;;1999.90;999.90;;;;;;;;;;5020926;28;20050;-84
2023/09/01 12:22:20;;;;;;;1999.90;999.90;;;;;;;;;;5021858;28;20045;-80
2023/09/01 12:24:53;;;;;;;1999.90;999.90;;;;;;;;;;5021339;28;20508;-83
2023/09/01 12:27:20;;;;;;;1999.90;999.90;;;;;;;;;;5023919;28;20041;-81
2023/09/01 12:29:47;;;;;;;1999.90;999.90;;;;;;;;;;5021061;28;20049;-84
2023/09/01 12:32:13;;;;;;;1999.90;999.90;;;;;;;;;;5018685;28;20562;-81
2023/09/01 12:34:42;;;;;;;1999.90;999.90;;;;;;;;;;5023072;28;20046;-80
2023/09/01 12:37:08;;;;;;;1999.90;999.90;;;;;;;;;;5025019;28;20049;-82
2023/09/01 12:39:36;;;;;;;1999.90;999.90;;;;;;;;;;5021838;28;20041;-81
2023/09/01 12:42:02;;;;;;;1999.90;999.90;;;;;;;;;;5019092;28;20076;-81
2023/09/01 12:44:30;;;;;;;1999.90;999.90;;;;;;;;;;5016909;28;20045;-81
2023/09/01 12:46:57;;;;;;;1999.90;999.90;;;;;;;;;;5017066;28;20045;-80
2023/09/01 12:49:23;;;;;;;1999.90;999.90;;;;;;;;;;5017001;28;20228;-81
2023/09/01 12:51:51;;;;;;;1999.90;999.90;;;;;;;;;;5023006;28;20080;-81
2023/09/01 12:54:18;;;;;;;1999.90;999.90;;;;;;;;;;5019522;28;20045;-81
2023/09/01 12:56:44;;;;;;;1999.90;999.90;;;;;;;;;;5022824;28;20049;-82
2023/09/01 12:59:11;;;;;;;1999.90;999.90;;;;;;;;;;5020942;28;20054;-82
2023/09/01 13:01:37;;;;;;;1999.90;999.90;;;;;;;;;;5024481;28;20042;-81
2023/09/01 13:04:04;;;;;;;1999.90;999.90;;;;;;;;;;5024649;28;20140;-82
2023/09/01 13:06:32;;;;;;;1999.90;999.90;;;;;;;;;;5021078;28;20680;-81
2023/09/01 13:09:01;;;;;;;1999.90;999.90;;;;;;;;;;5022013;28;20051;-84
2023/09/01 13:11:28;;;;;;;1999.90;999.90;;;;;;;;;;5023222;28;20041;-85
2023/09/01 13:13:54;;;;;;;1999.90;999.90;;;;;;;;;;5021292;28;20053;-83
2023/09/01 13:16:21;;;;;;;1999.90;999.90;;;;;;;;;;5019744;28;20506;-82
2023/09/01 13:18:47;;;;;;;1999.90;999.90;;;;;;;;;;5024987;28;20052;-82
2023/09/01 13:21:14;;;;;;;1999.90;999.90;;;;;;;;;;5018829;28;20483;-81
2023/09/01 13:23:40;;;;;;;1999.90;999.90;;;;;;;;;;5021854;28;20049;-82
2023/09/01 13:26:08;;;;;;;1999.90;999.90;;;;;;;;;;5021782;28;20447;-82
2023/09/01 13:28:35;;;;;;;1999.90;999.90;;;;;;;;;;5021728;28;20471;-81
2023/09/01 13:31:01;;;;;;;1999.90;999.90;;;;;;;;;;5021061;28;20054;-85
2023/09/01 13:33:28;;;;;;;1999.90;999.90;;;;;;;;;;5020459;28;20152;-81
2023/09/01 13:35:54;;;;;;;1999.90;999.90;;;;;;;;;;5020845;28;20049;-81
2023/09/01 13:38:21;;;;;;;1999.90;999.90;;;;;;;;;;5021506;28;20049;-84
2023/09/01 13:40:55;;;;;;;1999.90;999.90;;;;;;;;;;5021289;28;20061;-83
2023/09/01 13:43:23;;;;;;;1999.90;999.90;;;;;;;;;;5018548;28;20478;-83
2023/09/01 13:45:49;;;;;;;1999.90;999.90;;;;;;;;;;5025269;28;20499;-80
2023/09/01 13:48:16;;;;;;;1999.90;999.90;;;;;;;;;;5023323;28;20045;-80
2023/09/01 13:51:07;;;;;;;1999.90;999.90;;;;;;;;;;5020976;28;20050;-80
2023/09/01 13:53:34;;;;;;;1999.90;999.90;;;;;;;;;;5026363;28;20077;-82
2023/09/01 13:56:00;;;;;;;1999.90;999.90;;;;;;;;;;5018663;28;20045;-81